createdAt,value
2022-07-25T00:00:45.809Z,0
2022-07-25T00:01:45.894Z,0
2022-07-25T00:02:45.827Z,0
2022-07-25T00:03:45.838Z,0
2022-07-25T00:04:45.888Z,0
2022-07-25T00:05:45.833Z,0
2022-07-25T00:06:45.824Z,0
2022-07-25T00:07:45.833Z,0
2022-07-25T00:08:45.831Z,0
2022-07-25T00:09:46.027Z,0
2022-07-25T00:10:45.827Z,0
2022-07-25T00:11:45.822Z,0
2022-07-25T00:12:45.828Z,0
2022-07-25T00:13:45.826Z,0
2022-07-25T00:14:45.825Z,0
2022-07-25T00:15:45.884Z,0
2022-07-25T00:16:45.831Z,0
2022-07-25T00:17:45.825Z,0
2022-07-25T00:18:45.836Z,0
2022-07-25T00:19:45.833Z,0
2022-07-25T00:20:45.831Z,0
2022-07-25T00:21:45.837Z,0
2022-07-25T00:22:45.869Z,0
2022-07-25T00:23:45.838Z,0
2022-07-25T00:24:45.851Z,0
2022-07-25T00:25:45.837Z,0
2022-07-25T00:26:45.844Z,0
2022-07-25T00:27:45.849Z,0
2022-07-25T00:28:45.858Z,0
2022-07-25T00:29:45.853Z,0
2022-07-25T00:30:45.905Z,0
2022-07-25T00:31:45.913Z,0
2022-07-25T00:32:45.865Z,0
2022-07-25T00:33:45.861Z,0
2022-07-25T00:34:45.856Z,0
2022-07-25T00:35:45.859Z,0
2022-07-25T00:36:45.859Z,0
2022-07-25T00:37:45.869Z,0
2022-07-25T00:38:45.867Z,0
2022-07-25T00:39:45.869Z,0
2022-07-25T00:40:45.873Z,0
2022-07-25T00:41:45.865Z,0
2022-07-25T00:42:45.874Z,0
2022-07-25T00:43:45.870Z,0
2022-07-25T00:44:45.886Z,0
2022-07-25T00:45:45.883Z,0
2022-07-25T00:46:45.956Z,0
2022-07-25T00:47:45.894Z,0
2022-07-25T00:48:45.945Z,0
2022-07-25T00:49:45.894Z,0
2022-07-25T00:50:45.897Z,0
2022-07-25T00:51:45.896Z,0
2022-07-25T00:52:45.906Z,0
2022-07-25T00:53:45.907Z,0
2022-07-25T00:54:45.905Z,0
2022-07-25T00:55:45.908Z,0
2022-07-25T00:56:45.907Z,0
2022-07-25T00:57:45.910Z,0
2022-07-25T00:58:45.927Z,0
2022-07-25T00:59:45.909Z,0
2022-07-25T01:00:45.919Z,0
2022-07-25T01:01:45.946Z,0
2022-07-25T01:02:45.933Z,0
2022-07-25T01:03:45.912Z,0
2022-07-25T01:04:45.919Z,0
2022-07-25T01:05:49.029Z,0
2022-07-25T01:06:45.920Z,0
2022-07-25T01:07:45.925Z,0
2022-07-25T01:08:45.934Z,0
2022-07-25T01:09:45.923Z,0
2022-07-25T01:10:45.927Z,0
2022-07-25T01:11:45.930Z,0
2022-07-25T01:12:45.939Z,0
2022-07-25T01:13:45.938Z,0
2022-07-25T01:14:45.930Z,0
2022-07-25T01:15:45.959Z,0
2022-07-25T01:16:45.929Z,0
2022-07-25T01:17:45.931Z,0
2022-07-25T01:18:45.939Z,0
2022-07-25T01:19:45.940Z,0
2022-07-25T01:20:45.938Z,0
2022-07-25T01:21:45.941Z,0
2022-07-25T01:22:45.937Z,0
2022-07-25T01:23:45.937Z,0
2022-07-25T01:24:45.960Z,0
2022-07-25T01:25:45.943Z,0
2022-07-25T01:26:45.945Z,0
2022-07-25T01:27:47.907Z,0
2022-07-25T01:28:45.940Z,0
2022-07-25T01:29:45.948Z,0
2022-07-25T01:30:45.994Z,0
2022-07-25T01:31:45.953Z,0
2022-07-25T01:32:45.948Z,0
2022-07-25T01:33:45.951Z,0
2022-07-25T01:34:45.958Z,0
2022-07-25T01:35:45.958Z,0
2022-07-25T01:36:45.957Z,0
2022-07-25T01:37:46.354Z,0
2022-07-25T01:38:45.954Z,0
2022-07-25T01:39:45.955Z,0
2022-07-25T01:40:45.967Z,0
2022-07-25T01:41:45.964Z,0
2022-07-25T01:42:45.967Z,0
2022-07-25T01:43:45.964Z,0
2022-07-25T01:44:45.972Z,0
2022-07-25T01:45:45.988Z,0
2022-07-25T01:46:46.016Z,0
2022-07-25T01:47:45.973Z,0
2022-07-25T01:48:46.013Z,0
2022-07-25T01:49:45.969Z,0
2022-07-25T01:50:45.977Z,0
2022-07-25T01:51:45.976Z,0
2022-07-25T01:52:45.974Z,0
2022-07-25T01:53:45.982Z,0
2022-07-25T01:54:45.985Z,0
2022-07-25T01:55:45.993Z,0
2022-07-25T01:56:46.904Z,0
2022-07-25T01:57:48.654Z,0
2022-07-25T01:58:45.989Z,0
2022-07-25T01:59:45.993Z,0
2022-07-25T02:00:45.990Z,0
2022-07-25T02:01:46.042Z,0
2022-07-25T02:02:45.993Z,0
2022-07-25T02:03:46.002Z,0
2022-07-25T02:04:46.032Z,0
2022-07-25T02:05:46.004Z,0
2022-07-25T02:06:46.006Z,0
2022-07-25T02:07:46.002Z,0
2022-07-25T02:08:46.005Z,0
2022-07-25T02:09:46.004Z,0
2022-07-25T02:10:46.012Z,0
2022-07-25T02:11:46.034Z,0
2022-07-25T02:12:46.020Z,0
2022-07-25T02:13:46.030Z,0
2022-07-25T02:14:46.018Z,0
2022-07-25T02:15:46.020Z,0
2022-07-25T02:16:46.073Z,0
2022-07-25T02:17:46.014Z,0
2022-07-25T02:18:46.012Z,0
2022-07-25T02:19:46.023Z,0
2022-07-25T02:20:46.017Z,0
2022-07-25T02:21:46.016Z,0
2022-07-25T02:22:46.029Z,0
2022-07-25T02:23:46.042Z,0
2022-07-25T02:24:46.031Z,0
2022-07-25T02:25:46.032Z,0
2022-07-25T02:26:46.032Z,0
2022-07-25T02:27:46.027Z,0
2022-07-25T02:28:46.034Z,0
2022-07-25T02:29:46.038Z,0
2022-07-25T02:30:46.087Z,0
2022-07-25T02:31:46.035Z,0
2022-07-25T02:32:46.034Z,0
2022-07-25T02:33:46.039Z,0
2022-07-25T02:34:46.039Z,0
2022-07-25T02:35:46.050Z,0
2022-07-25T02:36:46.043Z,0
2022-07-25T02:37:46.047Z,0
2022-07-25T02:38:46.031Z,0
2022-07-25T02:39:46.052Z,0
2022-07-25T02:40:46.046Z,0
2022-07-25T02:41:46.058Z,0
2022-07-25T02:42:46.063Z,0
2022-07-25T02:43:46.051Z,0
2022-07-25T02:44:46.055Z,0
2022-07-25T02:45:46.162Z,0
2022-07-25T02:46:46.055Z,0
2022-07-25T02:47:46.058Z,0
2022-07-25T02:48:46.103Z,0
2022-07-25T02:49:46.063Z,0
2022-07-25T02:50:46.055Z,0
2022-07-25T02:51:46.065Z,0
2022-07-25T02:52:46.053Z,0
2022-07-25T02:53:57.000Z,0
2022-07-25T02:54:46.059Z,0
2022-07-25T02:55:46.072Z,0
2022-07-25T02:56:46.080Z,0
2022-07-25T02:57:46.073Z,0
2022-07-25T02:58:46.071Z,0
2022-07-25T02:59:46.072Z,0
2022-07-25T03:00:46.065Z,0
2022-07-25T03:01:46.161Z,0
2022-07-25T03:02:46.076Z,0
2022-07-25T03:03:46.191Z,0
2022-07-25T03:04:46.077Z,0
2022-07-25T03:05:46.075Z,0
2022-07-25T03:06:46.071Z,0
2022-07-25T03:07:46.079Z,0
2022-07-25T03:08:46.082Z,0
2022-07-25T03:09:46.079Z,0
2022-07-25T03:10:46.085Z,0
2022-07-25T03:11:46.089Z,0
2022-07-25T03:12:46.084Z,0
2022-07-25T03:13:46.089Z,0
2022-07-25T03:14:46.086Z,0
2022-07-25T03:15:46.090Z,0
2022-07-25T03:16:46.136Z,0
2022-07-25T03:17:46.093Z,0
2022-07-25T03:18:46.092Z,0
2022-07-25T03:19:46.100Z,0
2022-07-25T03:20:46.092Z,0
2022-07-25T03:21:46.095Z,0
2022-07-25T03:22:46.092Z,0
2022-07-25T03:23:50.514Z,0
2022-07-25T03:24:46.094Z,0
2022-07-25T03:25:46.107Z,0
2022-07-25T03:26:46.090Z,0
2022-07-25T03:27:46.093Z,0
2022-07-25T03:28:46.101Z,0
2022-07-25T03:29:46.100Z,0
2022-07-25T03:30:46.094Z,0
2022-07-25T03:31:46.130Z,0
2022-07-25T03:32:46.102Z,0
2022-07-25T03:33:46.111Z,0
2022-07-25T03:34:46.095Z,0
2022-07-25T03:35:46.100Z,0
2022-07-25T03:36:46.103Z,0
2022-07-25T03:37:46.101Z,0
2022-07-25T03:38:46.107Z,0
2022-07-25T03:39:46.101Z,0
2022-07-25T03:40:46.103Z,0
2022-07-25T03:41:46.099Z,0
2022-07-25T03:42:46.098Z,0
2022-07-25T03:43:46.107Z,0
2022-07-25T03:44:46.110Z,0
2022-07-25T03:45:46.180Z,0
2022-07-25T03:46:46.119Z,0
2022-07-25T03:47:46.111Z,0
2022-07-25T03:48:46.151Z,0
2022-07-25T03:49:46.111Z,0
2022-07-25T03:50:46.097Z,0
2022-07-25T03:51:46.107Z,0
2022-07-25T03:52:46.124Z,0
2022-07-25T03:53:46.101Z,0
2022-07-25T03:54:46.109Z,0
2022-07-25T03:55:46.102Z,0
2022-07-25T03:56:46.100Z,0
2022-07-25T03:57:46.098Z,0
2022-07-25T03:58:46.108Z,0
2022-07-25T03:59:46.112Z,0
2022-07-25T04:00:46.131Z,0
2022-07-25T04:01:46.109Z,0
2022-07-25T04:02:46.160Z,0
2022-07-25T04:03:46.108Z,0
2022-07-25T04:04:46.114Z,0
2022-07-25T04:05:47.657Z,0
2022-07-25T04:06:46.110Z,0
2022-07-25T04:07:46.115Z,0
2022-07-25T04:08:46.119Z,0
2022-07-25T04:09:46.114Z,0
2022-07-25T04:10:46.114Z,0
2022-07-25T04:11:46.117Z,0
2022-07-25T04:12:46.125Z,0
2022-07-25T04:13:46.131Z,0
2022-07-25T04:14:46.126Z,0
2022-07-25T04:15:46.134Z,0
2022-07-25T04:16:46.202Z,0
2022-07-25T04:17:46.136Z,0
2022-07-25T04:18:46.138Z,0
2022-07-25T04:19:46.138Z,0
2022-07-25T04:20:46.154Z,0
2022-07-25T04:21:46.134Z,0
2022-07-25T04:22:47.032Z,0
2022-07-25T04:23:46.155Z,0
2022-07-25T04:24:46.163Z,0
2022-07-25T04:25:46.157Z,0
2022-07-25T04:26:46.159Z,0
2022-07-25T04:27:46.156Z,0
2022-07-25T04:28:46.170Z,0
2022-07-25T04:29:46.167Z,0
2022-07-25T04:30:46.167Z,0
2022-07-25T04:31:46.247Z,0
2022-07-25T04:32:46.167Z,0
2022-07-25T04:33:46.179Z,0
2022-07-25T04:34:46.173Z,0
2022-07-25T04:35:46.180Z,0
2022-07-25T04:36:46.179Z,0
2022-07-25T04:37:46.184Z,0
2022-07-25T04:38:46.179Z,0
2022-07-25T04:39:46.191Z,0
2022-07-25T04:40:46.181Z,0
2022-07-25T04:41:46.187Z,0
2022-07-25T04:42:46.185Z,0
2022-07-25T04:43:48.661Z,0
2022-07-25T04:44:46.203Z,0
2022-07-25T04:45:46.253Z,0
2022-07-25T04:46:46.193Z,0
2022-07-25T04:47:46.203Z,0
2022-07-25T04:48:46.460Z,0
2022-07-25T04:49:46.212Z,0
2022-07-25T04:50:46.197Z,0
2022-07-25T04:51:46.209Z,0
2022-07-25T04:52:46.208Z,0
2022-07-25T04:53:46.205Z,0
2022-07-25T04:54:46.208Z,0
2022-07-25T04:55:46.215Z,0
2022-07-25T04:56:46.216Z,0
2022-07-25T04:57:46.209Z,0
2022-07-25T04:58:46.210Z,0
2022-07-25T04:59:46.211Z,0
2022-07-25T05:00:46.252Z,0
2022-07-25T05:01:46.286Z,0
2022-07-25T05:02:46.216Z,0
2022-07-25T05:03:49.703Z,0
2022-07-25T05:04:46.214Z,0
2022-07-25T05:05:46.214Z,0
2022-07-25T05:06:46.222Z,0
2022-07-25T05:07:46.213Z,0
2022-07-25T05:08:46.217Z,0
2022-07-25T05:09:46.217Z,0
2022-07-25T05:10:46.223Z,0
2022-07-25T05:11:48.686Z,0
2022-07-25T05:12:46.238Z,0
2022-07-25T05:13:46.221Z,0
2022-07-25T05:14:46.242Z,0
2022-07-25T05:15:46.237Z,0
2022-07-25T05:16:46.277Z,0
2022-07-25T05:17:46.230Z,0
2022-07-25T05:18:46.238Z,0
2022-07-25T05:19:46.243Z,0
2022-07-25T05:20:46.240Z,0
2022-07-25T05:21:46.243Z,0
2022-07-25T05:22:46.243Z,0
2022-07-25T05:23:46.242Z,0
2022-07-25T05:24:46.247Z,0
2022-07-25T05:25:46.247Z,0
2022-07-25T05:26:46.250Z,0
2022-07-25T05:27:46.249Z,0
2022-07-25T05:28:46.250Z,0
2022-07-25T05:29:46.250Z,0
2022-07-25T05:30:46.248Z,0
2022-07-25T05:31:46.317Z,0
2022-07-25T05:32:46.257Z,0
2022-07-25T05:33:46.254Z,0
2022-07-25T05:34:46.250Z,0
2022-07-25T05:35:46.258Z,0
2022-07-25T05:36:47.385Z,0
2022-07-25T05:37:46.270Z,0
2022-07-25T05:38:46.255Z,0
2022-07-25T05:39:46.241Z,0
2022-07-25T05:40:46.263Z,0
2022-07-25T05:41:46.265Z,0
2022-07-25T05:42:46.266Z,0
2022-07-25T05:43:46.258Z,0
2022-07-25T05:44:46.263Z,0
2022-07-25T05:45:46.271Z,0
2022-07-25T05:46:46.313Z,0
2022-07-25T05:47:46.266Z,0
2022-07-25T05:48:46.286Z,0
2022-07-25T05:49:46.261Z,0
2022-07-25T05:50:46.281Z,0
2022-07-25T05:51:46.281Z,0
2022-07-25T05:52:46.288Z,2.5
2022-07-25T05:53:46.275Z,2.4000000000000004
2022-07-25T05:54:46.277Z,1.1
2022-07-25T05:55:46.276Z,0
2022-07-25T05:56:46.275Z,0
2022-07-25T05:57:46.284Z,0
2022-07-25T05:58:46.284Z,0
2022-07-25T05:59:46.280Z,0
2022-07-25T06:00:46.281Z,0
2022-07-25T06:01:46.318Z,0
2022-07-25T06:02:46.398Z,3.3000000000000003
2022-07-25T06:03:46.296Z,0.9
2022-07-25T06:04:46.285Z,4.2
2022-07-25T06:05:46.279Z,2.2
2022-07-25T06:06:46.293Z,2.8000000000000003
2022-07-25T06:07:46.288Z,0
2022-07-25T06:08:46.294Z,0
2022-07-25T06:09:46.293Z,0
2022-07-25T06:10:46.298Z,0
2022-07-25T06:11:51.213Z,0
2022-07-25T06:12:46.293Z,0
2022-07-25T06:13:46.298Z,0
2022-07-25T06:14:46.302Z,5.800000000000001
2022-07-25T06:15:46.292Z,4
2022-07-25T06:16:46.341Z,0
2022-07-25T06:17:46.312Z,0
2022-07-25T06:18:46.317Z,0
2022-07-25T06:19:46.323Z,0
2022-07-25T06:20:46.308Z,2.4000000000000004
2022-07-25T06:21:46.318Z,0
2022-07-25T06:22:46.318Z,0
2022-07-25T06:23:46.312Z,2.9000000000000004
2022-07-25T06:24:46.320Z,0.5
2022-07-25T06:25:50.077Z,0
2022-07-25T06:26:46.325Z,0
2022-07-25T06:27:46.323Z,0
2022-07-25T06:28:46.320Z,0
2022-07-25T06:29:46.325Z,0
2022-07-25T06:30:46.329Z,0
2022-07-25T06:31:47.301Z,0
2022-07-25T06:32:46.324Z,2.1
2022-07-25T06:33:46.317Z,1
2022-07-25T06:34:46.327Z,6.300000000000001
2022-07-25T06:35:46.326Z,3.8000000000000003
2022-07-25T06:36:46.328Z,0
2022-07-25T06:37:46.333Z,2.7
2022-07-25T06:38:46.332Z,0
2022-07-25T06:39:46.434Z,4
2022-07-25T06:40:46.331Z,0.8
2022-07-25T06:41:46.326Z,4.5
2022-07-25T06:42:46.344Z,3.4000000000000004
2022-07-25T06:43:46.339Z,4.1000000000000005
2022-07-25T06:44:46.350Z,1.6
2022-07-25T06:45:46.335Z,0
2022-07-25T06:46:46.428Z,1.2000000000000002
2022-07-25T06:47:46.342Z,0
2022-07-25T06:48:46.390Z,0
2022-07-25T06:49:46.344Z,1.7000000000000002
2022-07-25T06:50:46.342Z,1.2000000000000002
2022-07-25T06:51:46.340Z,0
2022-07-25T06:52:46.343Z,0
2022-07-25T06:53:46.351Z,0
2022-07-25T06:54:46.348Z,0
2022-07-25T06:55:46.345Z,0
2022-07-25T06:56:46.356Z,0
2022-07-25T06:57:46.365Z,0
2022-07-25T06:58:46.353Z,0
2022-07-25T06:59:46.359Z,0
2022-07-25T07:00:46.404Z,0
2022-07-25T07:01:51.147Z,2.8000000000000003
2022-07-25T07:02:46.355Z,1.9000000000000001
2022-07-25T07:03:46.478Z,2
2022-07-25T07:04:46.365Z,2.4000000000000004
2022-07-25T07:05:46.363Z,3.9000000000000004
2022-07-25T07:06:46.368Z,4.800000000000001
2022-07-25T07:07:47.911Z,0.8
2022-07-25T07:08:46.373Z,0
2022-07-25T07:09:46.375Z,3.8000000000000003
2022-07-25T07:10:46.364Z,1.2000000000000002
2022-07-25T07:11:46.375Z,2.8000000000000003
2022-07-25T07:12:46.369Z,4.6000000000000005
2022-07-25T07:13:46.384Z,5.1000000000000005
2022-07-25T07:14:46.378Z,2.2
2022-07-25T07:15:46.450Z,0
2022-07-25T07:16:46.461Z,4.1000000000000005
2022-07-25T07:17:46.375Z,0
2022-07-25T07:18:49.252Z,0
2022-07-25T07:19:46.384Z,0
2022-07-25T07:20:46.393Z,2.3000000000000003
2022-07-25T07:21:46.422Z,1.4000000000000001
2022-07-25T07:22:46.384Z,0
2022-07-25T07:23:46.378Z,2.4000000000000004
2022-07-25T07:24:48.153Z,0
2022-07-25T07:25:46.381Z,7.2
2022-07-25T07:26:46.417Z,0
2022-07-25T07:27:46.394Z,2.6
2022-07-25T07:28:46.406Z,0
2022-07-25T07:29:46.402Z,0
2022-07-25T07:31:46.464Z,0
2022-07-25T07:32:46.406Z,1.8
2022-07-25T07:33:46.404Z,1.4000000000000001
2022-07-25T07:34:46.405Z,3
2022-07-25T07:35:46.406Z,4.7
2022-07-25T07:36:46.410Z,3.2
2022-07-25T07:37:46.407Z,3.8000000000000003
2022-07-25T07:38:46.418Z,4.6000000000000005
2022-07-25T07:39:46.423Z,0
2022-07-25T07:40:46.416Z,1.6
2022-07-25T07:41:46.401Z,2.8000000000000003
2022-07-25T07:42:46.396Z,3.8000000000000003
2022-07-25T07:43:46.401Z,2.6
2022-07-25T07:44:46.406Z,5.4
2022-07-25T07:45:46.410Z,0
2022-07-25T07:46:46.478Z,4.1000000000000005
2022-07-25T07:47:46.396Z,5.800000000000001
2022-07-25T07:48:46.459Z,3.4000000000000004
2022-07-25T07:49:50.085Z,7.300000000000001
2022-07-25T07:50:46.411Z,4.9
2022-07-25T07:51:46.433Z,1.5
2022-07-25T07:52:46.413Z,0
2022-07-25T07:53:46.402Z,1.7000000000000002
2022-07-25T07:54:46.405Z,1.6
2022-07-25T07:55:46.423Z,0
2022-07-25T07:56:46.411Z,1
2022-07-25T07:57:46.415Z,3.6
2022-07-25T07:58:46.419Z,2.2
2022-07-25T07:59:46.418Z,3
2022-07-25T08:00:46.421Z,0
2022-07-25T08:01:46.485Z,3.3000000000000003
2022-07-25T08:02:46.473Z,0
2022-07-25T08:03:46.425Z,0
2022-07-25T08:04:46.428Z,6.6000000000000005
2022-07-25T08:05:46.420Z,5.7
2022-07-25T08:06:46.433Z,3
2022-07-25T08:07:46.421Z,3.3000000000000003
2022-07-25T08:08:46.432Z,0
2022-07-25T08:09:46.418Z,0
2022-07-25T08:10:46.420Z,0
2022-07-25T08:11:46.429Z,2.3000000000000003
2022-07-25T08:12:46.438Z,6.800000000000001
2022-07-25T08:13:46.421Z,7
2022-07-25T08:14:46.429Z,0
2022-07-25T08:15:46.522Z,0
2022-07-25T08:16:46.424Z,0
2022-07-25T08:17:46.435Z,2.9000000000000004
2022-07-25T08:18:46.429Z,1.4000000000000001
2022-07-25T08:19:46.433Z,0
2022-07-25T08:20:46.445Z,1.5
2022-07-25T08:21:46.750Z,1.7000000000000002
2022-07-25T08:22:46.432Z,0
2022-07-25T08:23:46.437Z,0
2022-07-25T08:24:46.433Z,0
2022-07-25T08:25:46.429Z,4.800000000000001
2022-07-25T08:26:46.431Z,1.5
2022-07-25T08:27:46.448Z,4.6000000000000005
2022-07-25T08:28:46.576Z,0
2022-07-25T08:29:46.437Z,0
2022-07-25T08:30:46.506Z,0
2022-07-25T08:31:46.470Z,0
2022-07-25T08:32:46.442Z,4.2
2022-07-25T08:33:46.428Z,2.9000000000000004
2022-07-25T08:34:46.432Z,1
2022-07-25T08:35:46.435Z,0
2022-07-25T08:36:46.455Z,0
2022-07-25T08:37:46.430Z,2.3000000000000003
2022-07-25T08:38:46.437Z,0
2022-07-25T08:39:46.450Z,0
2022-07-25T08:40:46.443Z,0
2022-07-25T08:41:46.463Z,0
2022-07-25T08:42:46.434Z,0
2022-07-25T08:43:46.442Z,0
2022-07-25T08:44:46.449Z,0
2022-07-25T08:45:46.448Z,0
2022-07-25T08:46:46.573Z,0
2022-07-25T08:47:46.439Z,4.9
2022-07-25T08:48:46.501Z,5.5
2022-07-25T08:49:46.434Z,0
2022-07-25T08:50:46.437Z,3.9000000000000004
2022-07-25T08:51:46.435Z,1.2000000000000002
2022-07-25T08:52:46.456Z,0
2022-07-25T08:53:48.450Z,0
2022-07-25T08:54:46.453Z,0
2022-07-25T08:55:46.445Z,0
2022-07-25T08:56:46.452Z,0
2022-07-25T08:57:46.456Z,0
2022-07-25T08:58:46.444Z,0
2022-07-25T08:59:46.443Z,0
2022-07-25T09:00:46.458Z,0
2022-07-25T09:01:46.511Z,0
2022-07-25T09:02:46.487Z,4.6000000000000005
2022-07-25T09:03:46.461Z,1.7000000000000002
2022-07-25T09:04:46.450Z,2.8000000000000003
2022-07-25T09:05:46.457Z,3.6
2022-07-25T09:06:46.469Z,1.6
2022-07-25T09:07:46.455Z,0
2022-07-25T09:08:46.460Z,0
2022-07-25T09:09:46.453Z,3.9000000000000004
2022-07-25T09:10:46.464Z,0
2022-07-25T09:11:46.474Z,0
2022-07-25T09:12:46.461Z,2.2
2022-07-25T09:13:46.468Z,0.9
2022-07-25T09:14:46.475Z,0
2022-07-25T09:15:46.526Z,0
2022-07-25T09:16:46.478Z,2.4000000000000004
2022-07-25T09:17:46.478Z,3.2
2022-07-25T09:18:46.478Z,0
2022-07-25T09:19:46.494Z,3.1
2022-07-25T09:20:46.488Z,3
2022-07-25T09:21:46.489Z,3
2022-07-25T09:22:46.499Z,2.8000000000000003
2022-07-25T09:23:46.492Z,4.6000000000000005
2022-07-25T09:24:46.491Z,1.2000000000000002
2022-07-25T09:25:46.498Z,2.5
2022-07-25T09:26:46.489Z,4.3
2022-07-25T09:27:46.492Z,5.2
2022-07-25T09:28:46.499Z,5
2022-07-25T09:29:46.497Z,3.1
2022-07-25T09:30:46.565Z,2.4000000000000004
2022-07-25T09:31:46.625Z,0
2022-07-25T09:32:46.498Z,0
2022-07-25T09:33:46.495Z,0
2022-07-25T09:34:46.493Z,3.8000000000000003
2022-07-25T09:35:46.498Z,2.5
2022-07-25T09:36:46.498Z,2
2022-07-25T09:37:46.518Z,0
2022-07-25T09:38:46.512Z,0
2022-07-25T09:39:47.359Z,0
2022-07-25T09:40:46.510Z,0
2022-07-25T09:41:46.507Z,3
2022-07-25T09:42:46.498Z,3.6
2022-07-25T09:43:46.494Z,0
2022-07-25T09:44:46.497Z,3.9000000000000004
2022-07-25T09:45:46.511Z,0.9
2022-07-25T09:46:46.618Z,0
2022-07-25T09:47:46.510Z,0
2022-07-25T09:48:46.580Z,0
2022-07-25T09:49:46.518Z,0
2022-07-25T09:50:46.534Z,0
2022-07-25T09:51:46.517Z,2.3000000000000003
2022-07-25T09:52:46.519Z,3.3000000000000003
2022-07-25T09:53:46.538Z,1.4000000000000001
2022-07-25T09:54:46.530Z,5.300000000000001
2022-07-25T09:55:46.528Z,1
2022-07-25T09:56:46.540Z,2.1
2022-07-25T09:57:46.530Z,2.9000000000000004
2022-07-25T09:58:46.533Z,0
2022-07-25T09:59:46.546Z,0
2022-07-25T10:00:46.534Z,0
2022-07-25T10:01:46.591Z,0
2022-07-25T10:02:46.563Z,0
2022-07-25T10:03:46.545Z,3.2
2022-07-25T10:04:46.545Z,1.7000000000000002
2022-07-25T10:05:46.542Z,3.2
2022-07-25T10:06:46.542Z,0
2022-07-25T10:07:46.560Z,0
2022-07-25T10:08:46.550Z,0
2022-07-25T10:09:46.557Z,0
2022-07-25T10:10:46.571Z,0
2022-07-25T10:11:46.559Z,3.2
2022-07-25T10:12:46.561Z,0
2022-07-25T10:13:46.561Z,0
2022-07-25T10:14:46.555Z,0
2022-07-25T10:15:46.559Z,0
2022-07-25T10:16:46.680Z,0
2022-07-25T10:17:46.567Z,0
2022-07-25T10:18:46.568Z,0
2022-07-25T10:19:51.097Z,0
2022-07-25T10:20:46.573Z,0
2022-07-25T10:21:46.571Z,0
2022-07-25T10:23:00.821Z,0
2022-07-25T10:23:46.565Z,0
2022-07-25T10:24:46.573Z,0
2022-07-25T10:25:49.052Z,0
2022-07-25T10:26:46.580Z,0
2022-07-25T10:27:46.585Z,0
2022-07-25T10:28:46.585Z,0
2022-07-25T10:29:46.588Z,0
2022-07-25T10:30:46.646Z,0
2022-07-25T10:31:50.821Z,0
2022-07-25T10:32:46.598Z,5
2022-07-25T10:33:46.599Z,1.5
2022-07-25T10:34:46.605Z,0
2022-07-25T10:35:46.608Z,0.8
2022-07-25T10:36:46.606Z,0
2022-07-25T10:37:49.081Z,0
2022-07-25T10:38:46.614Z,0
2022-07-25T10:39:46.610Z,0
2022-07-25T10:40:46.665Z,0
2022-07-25T10:41:46.616Z,2.1
2022-07-25T10:42:46.609Z,0
2022-07-25T10:43:48.634Z,5.800000000000001
2022-07-25T10:44:46.613Z,4.4
2022-07-25T10:45:46.637Z,4.6000000000000005
2022-07-25T10:46:46.617Z,1.8
2022-07-25T10:47:46.625Z,3
2022-07-25T10:48:46.694Z,3.2
2022-07-25T10:50:00.474Z,0
2022-07-25T10:51:46.628Z,0
2022-07-25T10:52:46.626Z,0
2022-07-25T10:53:46.641Z,0
2022-07-25T10:54:46.629Z,0
2022-07-25T10:55:55.576Z,0
2022-07-25T10:56:46.635Z,0
2022-07-25T10:58:08.052Z,0
2022-07-25T10:58:46.627Z,0
2022-07-25T10:59:46.636Z,0
2022-07-25T11:00:46.655Z,0
2022-07-25T11:01:46.658Z,0
2022-07-25T11:02:46.646Z,0
2022-07-25T11:03:46.639Z,3.8000000000000003
2022-07-25T11:04:46.640Z,3.5
2022-07-25T11:05:46.648Z,0.5
2022-07-25T11:06:46.649Z,0
2022-07-25T11:07:58.691Z,0
2022-07-25T11:08:46.643Z,0
2022-07-25T11:09:46.648Z,0
2022-07-25T11:10:46.646Z,0
2022-07-25T11:11:46.664Z,2.2
2022-07-25T11:12:46.661Z,2.9000000000000004
2022-07-25T11:13:46.650Z,4.2
2022-07-25T11:14:46.660Z,0
2022-07-25T11:15:46.654Z,0
2022-07-25T11:16:46.702Z,0
2022-07-25T11:17:46.668Z,0
2022-07-25T11:18:46.666Z,0
2022-07-25T11:19:46.658Z,0
2022-07-25T11:20:46.671Z,4.2
2022-07-25T11:21:46.667Z,5.7
2022-07-25T11:22:46.667Z,1.7000000000000002
2022-07-25T11:23:46.666Z,5
2022-07-25T11:24:46.677Z,1.8
2022-07-25T11:25:46.674Z,1.8
2022-07-25T11:26:46.673Z,1.5
2022-07-25T11:27:46.679Z,0
2022-07-25T11:28:46.671Z,1.6
2022-07-25T11:29:46.675Z,2.1
2022-07-25T11:30:46.685Z,0
2022-07-25T11:31:46.740Z,0
2022-07-25T11:32:46.686Z,0
2022-07-25T11:33:46.682Z,0
2022-07-25T11:34:46.683Z,0
2022-07-25T11:35:46.684Z,0
2022-07-25T11:36:46.687Z,3.6
2022-07-25T11:37:46.689Z,4.800000000000001
2022-07-25T11:38:46.692Z,1.7000000000000002
2022-07-25T11:39:46.694Z,6.2
2022-07-25T11:40:46.709Z,7.6000000000000005
2022-07-25T11:41:46.696Z,0
2022-07-25T11:42:46.685Z,1.7000000000000002
2022-07-25T11:43:46.694Z,0
2022-07-25T11:44:47.934Z,0
2022-07-25T11:45:46.726Z,2.8000000000000003
2022-07-25T11:46:46.704Z,4.9
2022-07-25T11:47:46.701Z,5.7
2022-07-25T11:48:46.745Z,2.8000000000000003
2022-07-25T11:49:46.697Z,5.1000000000000005
2022-07-25T11:50:46.695Z,4.2
2022-07-25T11:51:46.701Z,2
2022-07-25T11:52:46.694Z,0
2022-07-25T11:53:46.705Z,1.9000000000000001
2022-07-25T11:54:46.702Z,1.2000000000000002
2022-07-25T11:55:46.706Z,0
2022-07-25T11:56:46.704Z,0
2022-07-25T11:57:46.708Z,0
2022-07-25T11:58:46.723Z,3.4000000000000004
2022-07-25T11:59:46.713Z,1
2022-07-25T12:00:46.730Z,2.2
2022-07-25T12:01:46.712Z,3.7
2022-07-25T12:02:46.860Z,6.800000000000001
2022-07-25T12:03:46.785Z,7.5
2022-07-25T12:04:46.709Z,6.6000000000000005
2022-07-25T12:05:46.718Z,5.4
2022-07-25T12:06:46.732Z,1.5
2022-07-25T12:07:46.716Z,3.1
2022-07-25T12:08:46.715Z,2.9000000000000004
2022-07-25T12:09:46.723Z,4.3
2022-07-25T12:10:46.717Z,4.9
2022-07-25T12:11:46.727Z,5.1000000000000005
2022-07-25T12:12:46.729Z,1.4000000000000001
2022-07-25T12:13:46.732Z,2.7
2022-07-25T12:14:46.738Z,0
2022-07-25T12:15:46.735Z,5.1000000000000005
2022-07-25T12:16:46.860Z,4.1000000000000005
2022-07-25T12:17:46.735Z,6.7
2022-07-25T12:18:46.725Z,2.5
2022-07-25T12:19:46.730Z,4.1000000000000005
2022-07-25T12:20:46.733Z,2
2022-07-25T12:21:46.732Z,3.8000000000000003
2022-07-25T12:22:46.744Z,5
2022-07-25T12:23:46.737Z,0
2022-07-25T12:24:46.740Z,5.7
2022-07-25T12:25:46.756Z,2.6
2022-07-25T12:26:46.747Z,2.8000000000000003
2022-07-25T12:27:46.742Z,4.7
2022-07-25T12:28:46.743Z,9.5
2022-07-25T12:29:46.744Z,7.7
2022-07-25T12:30:46.818Z,2.7
2022-07-25T12:31:46.762Z,3
2022-07-25T12:32:46.734Z,1.8
2022-07-25T12:33:46.746Z,2.5
2022-07-25T12:34:46.756Z,6.1000000000000005
2022-07-25T12:35:46.746Z,6.6000000000000005
2022-07-25T12:36:46.742Z,7.6000000000000005
2022-07-25T12:37:46.749Z,13.4
2022-07-25T12:38:46.745Z,11.600000000000001
2022-07-25T12:39:46.752Z,13.3
2022-07-25T12:40:46.744Z,13.600000000000001
2022-07-25T12:41:46.746Z,8.6
2022-07-25T12:42:46.761Z,8.9
2022-07-25T12:43:46.755Z,13.8
2022-07-25T12:44:46.748Z,17.2
2022-07-25T12:45:46.791Z,7.4
2022-07-25T12:46:49.386Z,14.600000000000001
2022-07-25T12:47:46.750Z,11.100000000000001
2022-07-25T12:48:46.803Z,8.5
2022-07-25T12:49:46.749Z,12.200000000000001
2022-07-25T12:50:46.749Z,12.200000000000001
2022-07-25T12:51:46.758Z,5.7
2022-07-25T12:52:46.758Z,8.6
2022-07-25T12:53:46.758Z,7.300000000000001
2022-07-25T12:54:46.757Z,12.600000000000001
2022-07-25T12:55:46.748Z,8.200000000000001
2022-07-25T12:56:46.755Z,6.2
2022-07-25T12:57:46.752Z,7.4
2022-07-25T12:58:46.754Z,6.4
2022-07-25T12:59:46.747Z,7.5
2022-07-25T13:00:46.881Z,4.4
2022-07-25T13:01:46.853Z,4.1000000000000005
2022-07-25T13:02:46.837Z,4.1000000000000005
2022-07-25T13:03:46.756Z,8.5
2022-07-25T13:04:46.746Z,7.5
2022-07-25T13:05:46.761Z,9.700000000000001
2022-07-25T13:06:46.762Z,21.8
2022-07-25T13:07:46.751Z,16.5
2022-07-25T13:08:46.762Z,25
2022-07-25T13:09:46.758Z,19
2022-07-25T13:10:46.758Z,11.700000000000001
2022-07-25T13:11:46.758Z,8.1
2022-07-25T13:12:46.760Z,12.100000000000001
2022-07-25T13:13:46.751Z,13.100000000000001
2022-07-25T13:14:46.760Z,14.700000000000001
2022-07-25T13:15:46.770Z,14.5
2022-07-25T13:16:46.841Z,5.300000000000001
2022-07-25T13:17:46.774Z,16.3
2022-07-25T13:18:46.772Z,10.3
2022-07-25T13:19:46.774Z,13.8
2022-07-25T13:20:46.781Z,12.700000000000001
2022-07-25T13:21:46.783Z,7.9
2022-07-25T13:22:46.788Z,8.4
2022-07-25T13:23:46.784Z,5.5
2022-07-25T13:24:46.787Z,8.6
2022-07-25T13:25:46.786Z,11.700000000000001
2022-07-25T13:26:46.796Z,9.1
2022-07-25T13:27:46.799Z,8.1
2022-07-25T13:28:46.804Z,5.7